Time;durP1;ratioP1;P1;durP2;ratioP2;P2;SDS_P1;SDS_P2;PMS_P1;PMS_P2;Temp;Humidity;BMP_temperature;BMP_pressure;BME280_temperature;BME280_humidity;BME280_pressure;Samples;Min_cycle;Max_cycle;Signal;HPM_P1;HPM_P2
2023/06/03 00:00:44;;;;;;;11.30;7.07;;;;;;;;;;6344053;28;20257;-79
2023/06/03 00:03:46;;;;;;;13.63;7.33;;;;;;;;;;6342076;28;20099;-78
2023/06/03 00:06:46;;;;;;;15.35;7.65;;;;;;;;;;6342336;28;20265;-79
2023/06/03 00:09:46;;;;;;;14.38;7.88;;;;;;;;;;6339499;27;20096;-78
2023/06/03 00:12:47;;;;;;;16.20;7.17;;;;;;;;;;6342093;28;20485;-78
2023/06/03 00:15:47;;;;;;;20.95;8.13;;;;;;;;;;6340873;28;20254;-79
2023/06/03 00:18:47;;;;;;;17.23;8.43;;;;;;;;;;6335983;28;20491;-78
2023/06/03 00:21:50;;;;;;;14.77;7.77;;;;;;;;;;6343376;28;20023;-78
2023/06/03 00:24:50;;;;;;;12.70;7.75;;;;;;;;;;6337646;28;20091;-79
2023/06/03 00:27:51;;;;;;;11.10;6.43;;;;;;;;;;6338430;28;20024;-78
2023/06/03 00:30:51;;;;;;;15.05;7.57;;;;;;;;;;6343617;28;20281;-78
2023/06/03 00:33:52;;;;;;;11.07;6.53;;;;;;;;;;6333501;28;20107;-78
2023/06/03 00:36:52;;;;;;;16.02;7.35;;;;;;;;;;6342109;28;20012;-78
2023/06/03 00:39:52;;;;;;;12.63;6.87;;;;;;;;;;6337901;28;20012;-78
2023/06/03 00:42:52;;;;;;;16.98;7.90;;;;;;;;;;6337882;28;20676;-78
2023/06/03 00:45:53;;;;;;;24.08;10.07;;;;;;;;;;6341788;28;20249;-78
2023/06/03 00:48:53;;;;;;;15.77;8.17;;;;;;;;;;6343428;28;20020;-78
2023/06/03 00:51:53;;;;;;;19.17;7.45;;;;;;;;;;6337212;28;20047;-78
2023/06/03 00:54:54;;;;;;;16.23;7.38;;;;;;;;;;6346548;28;20023;-78
2023/06/03 00:57:54;;;;;;;13.10;7.55;;;;;;;;;;6346303;28;20019;-78
2023/06/03 01:00:55;;;;;;;13.05;7.20;;;;;;;;;;6332589;28;20034;-78
2023/06/03 01:03:56;;;;;;;12.63;7.97;;;;;;;;;;6337208;28;20012;-79
2023/06/03 01:07:15;;;;;;;17.23;8.10;;;;;;;;;;6333519;28;20019;-78
2023/06/03 01:10:30;;;;;;;18.50;8.82;;;;;;;;;;6338358;28;20039;-78
2023/06/03 01:13:31;;;;;;;19.98;8.05;;;;;;;;;;6337914;28;20043;-78
2023/06/03 01:16:32;;;;;;;12.87;7.20;;;;;;;;;;6337519;28;20027;-79
2023/06/03 01:19:38;;;;;;;15.23;7.78;;;;;;;;;;6341585;28;20249;-79
2023/06/03 01:22:40;;;;;;;15.82;7.63;;;;;;;;;;6339953;28;20030;-79
2023/06/03 01:25:41;;;;;;;11.60;6.10;;;;;;;;;;6337908;28;20015;-79
2023/06/03 01:28:41;;;;;;;14.20;6.80;;;;;;;;;;6338157;28;20027;-79
2023/06/03 01:31:42;;;;;;;10.82;4.93;;;;;;;;;;6323296;28;20019;-79
2023/06/03 01:34:42;;;;;;;10.27;4.93;;;;;;;;;;6338100;28;20016;-77
2023/06/03 01:37:43;;;;;;;13.25;5.45;;;;;;;;;;6340510;28;20065;-76
2023/06/03 01:40:44;;;;;;;14.87;5.10;;;;;;;;;;6335934;28;20020;-77
2023/06/03 01:43:44;;;;;;;10.85;5.72;;;;;;;;;;6342178;28;20023;-77
2023/06/03 01:46:45;;;;;;;14.02;5.15;;;;;;;;;;6336869;28;20046;-77
2023/06/03 01:49:45;;;;;;;12.70;5.85;;;;;;;;;;6340579;28;20451;-77
2023/06/03 01:52:46;;;;;;;11.25;5.82;;;;;;;;;;6332169;28;20473;-77
2023/06/03 01:55:46;;;;;;;12.27;4.80;;;;;;;;;;6341255;28;20516;-77
2023/06/03 01:58:46;;;;;;;17.67;6.78;;;;;;;;;;6338513;28;20477;-77
2023/06/03 02:01:47;;;;;;;12.60;7.43;;;;;;;;;;6333939;28;20062;-77
2023/06/03 02:04:48;;;;;;;16.80;8.27;;;;;;;;;;6335772;28;20095;-78
2023/06/03 02:07:48;;;;;;;14.40;7.25;;;;;;;;;;6333176;28;20023;-77
2023/06/03 02:10:48;;;;;;;20.43;8.27;;;;;;;;;;6338061;28;20024;-78
2023/06/03 02:13:49;;;;;;;20.23;10.13;;;;;;;;;;6340103;28;20260;-77
2023/06/03 02:16:50;;;;;;;16.38;8.13;;;;;;;;;;6343949;28;20260;-77
2023/06/03 02:19:52;;;;;;;15.83;7.60;;;;;;;;;;6335315;28;20031;-77
2023/06/03 02:22:53;;;;;;;14.43;7.43;;;;;;;;;;6332730;28;20015;-77
2023/06/03 02:25:53;;;;;;;14.30;6.95;;;;;;;;;;6341601;28;20103;-77
2023/06/03 02:28:53;;;;;;;14.23;6.83;;;;;;;;;;6341777;28;20023;-78
2023/06/03 02:31:54;;;;;;;16.13;8.50;;;;;;;;;;6336528;28;20027;-82
2023/06/03 02:34:54;;;;;;;14.10;6.35;;;;;;;;;;6342885;28;20026;-82
2023/06/03 02:37:55;;;;;;;11.02;5.30;;;;;;;;;;6336113;28;20028;-81
2023/06/03 02:40:55;;;;;;;14.73;7.22;;;;;;;;;;6339967;28;20015;-82
2023/06/03 02:43:57;;;;;;;11.70;5.37;;;;;;;;;;6340170;28;20015;-82
2023/06/03 02:46:57;;;;;;;7.65;4.55;;;;;;;;;;6333831;28;20257;-82
2023/06/03 02:49:57;;;;;;;11.32;5.20;;;;;;;;;;6339267;28;20512;-82
2023/06/03 02:52:58;;;;;;;9.18;3.95;;;;;;;;;;6338245;28;20024;-82
2023/06/03 02:55:58;;;;;;;7.55;3.90;;;;;;;;;;6345181;28;20333;-82
2023/06/03 02:58:58;;;;;;;13.33;4.17;;;;;;;;;;6342012;28;20024;-82
2023/06/03 03:01:59;;;;;;;7.70;4.20;;;;;;;;;;6345837;28;20296;-82
2023/06/03 03:04:59;;;;;;;11.40;4.72;;;;;;;;;;6334519;28;20616;-82
2023/06/03 03:07:59;;;;;;;11.13;5.67;;;;;;;;;;6341544;28;20016;-82
2023/06/03 03:11:00;;;;;;;10.18;5.50;;;;;;;;;;6340642;28;20276;-82
2023/06/03 03:14:01;;;;;;;8.70;5.15;;;;;;;;;;6335142;28;20509;-82
2023/06/03 03:17:02;;;;;;;9.77;4.78;;;;;;;;;;6338290;28;20016;-82
2023/06/03 03:20:03;;;;;;;11.65;5.00;;;;;;;;;;6342781;28;20023;-81
2023/06/03 03:23:04;;;;;;;11.02;4.95;;;;;;;;;;6338207;28;20381;-82
2023/06/03 03:26:06;;;;;;;10.60;6.03;;;;;;;;;;6342568;28;20012;-82
2023/06/03 03:29:06;;;;;;;9.30;5.00;;;;;;;;;;6344517;28;20008;-82
2023/06/03 03:32:07;;;;;;;10.85;4.82;;;;;;;;;;6338394;27;20008;-82
2023/06/03 03:35:12;;;;;;;9.88;4.75;;;;;;;;;;6337233;28;20057;-82
2023/06/03 03:38:12;;;;;;;8.95;4.10;;;;;;;;;;6343478;28;20019;-82
2023/06/03 03:41:12;;;;;;;9.98;4.55;;;;;;;;;;6329536;28;20596;-77
2023/06/03 03:44:12;;;;;;;12.80;4.67;;;;;;;;;;6337548;28;20023;-77
2023/06/03 03:47:19;;;;;;;8.77;5.40;;;;;;;;;;6340138;28;20782;-77
2023/06/03 03:50:20;;;;;;;11.45;4.63;;;;;;;;;;6342077;28;20039;-77
2023/06/03 03:53:21;;;;;;;7.82;3.75;;;;;;;;;;6342951;28;20045;-77
2023/06/03 03:56:25;;;;;;;7.50;4.10;;;;;;;;;;6334610;28;20011;-78
2023/06/03 03:59:26;;;;;;;8.85;4.45;;;;;;;;;;6338376;28;20258;-78
2023/06/03 04:02:27;;;;;;;7.95;4.43;;;;;;;;;;6340188;28;20031;-78
2023/06/03 04:05:27;;;;;;;6.60;3.80;;;;;;;;;;6337511;28;20053;-77
2023/06/03 04:08:35;;;;;;;8.52;4.20;;;;;;;;;;6340543;28;20027;-78
2023/06/03 04:11:36;;;;;;;9.85;3.97;;;;;;;;;;6338263;28;20031;-78
2023/06/03 04:14:44;;;;;;;10.32;4.00;;;;;;;;;;6339011;28;20439;-78
2023/06/03 04:17:45;;;;;;;8.80;4.18;;;;;;;;;;6336768;28;20032;-78
2023/06/03 04:20:48;;;;;;;12.60;3.92;;;;;;;;;;6344405;28;20019;-78
2023/06/03 04:23:48;;;;;;;9.60;3.83;;;;;;;;;;6345379;28;20477;-78
2023/06/03 04:26:49;;;;;;;9.27;3.73;;;;;;;;;;6332826;28;20016;-78
2023/06/03 04:29:50;;;;;;;6.50;3.72;;;;;;;;;;6346582;28;20288;-79
2023/06/03 04:32:50;;;;;;;9.37;4.57;;;;;;;;;;6336002;28;20055;-79
2023/06/03 04:35:51;;;;;;;11.90;3.42;;;;;;;;;;6339726;28;20065;-79
2023/06/03 04:38:52;;;;;;;9.68;4.13;;;;;;;;;;6340608;28;20020;-79
2023/06/03 04:41:53;;;;;;;10.88;3.75;;;;;;;;;;6334037;28;20394;-79
2023/06/03 04:44:58;;;;;;;9.07;4.10;;;;;;;;;;6328461;28;20058;-79
2023/06/03 04:48:01;;;;;;;7.88;3.60;;;;;;;;;;6339855;28;20468;-79
2023/06/03 04:51:07;;;;;;;6.38;3.50;;;;;;;;;;6342447;28;20052;-84
2023/06/03 04:54:08;;;;;;;8.70;3.65;;;;;;;;;;6345148;28;20083;-84
2023/06/03 04:57:09;;;;;;;9.05;3.55;;;;;;;;;;6345337;28;20016;-85
2023/06/03 05:00:10;;;;;;;13.95;4.50;;;;;;;;;;6343569;28;20485;-83
2023/06/03 05:03:10;;;;;;;8.00;3.93;;;;;;;;;;6343734;28;20020;-83
2023/06/03 05:06:11;;;;;;;8.00;4.13;;;;;;;;;;6340988;28;20114;-83
2023/06/03 05:09:11;;;;;;;7.55;4.07;;;;;;;;;;6343594;28;20084;-83
2023/06/03 05:12:12;;;;;;;12.57;4.60;;;;;;;;;;6343913;28;20043;-84
2023/06/03 05:15:13;;;;;;;8.67;3.30;;;;;;;;;;6340758;28;20073;-83
2023/06/03 05:18:13;;;;;;;7.07;2.93;;;;;;;;;;6346512;28;20019;-83
2023/06/03 05:21:17;;;;;;;7.55;3.10;;;;;;;;;;6348132;28;20022;-83
2023/06/03 05:24:17;;;;;;;7.90;3.45;;;;;;;;;;6343971;28;20031;-84
2023/06/03 05:27:18;;;;;;;7.30;3.60;;;;;;;;;;6346054;28;20446;-84
2023/06/03 05:30:18;;;;;;;9.40;3.00;;;;;;;;;;6343970;28;20481;-84
2023/06/03 05:33:26;;;;;;;7.43;3.53;;;;;;;;;;6343117;28;19912;-84
2023/06/03 05:36:26;;;;;;;6.75;3.95;;;;;;;;;;6344321;28;20023;-85
2023/06/03 05:39:26;;;;;;;8.53;3.40;;;;;;;;;;6347459;28;20023;-84
2023/06/03 05:42:28;;;;;;;6.97;3.13;;;;;;;;;;6333067;28;20020;-86
2023/06/03 05:45:29;;;;;;;9.18;3.42;;;;;;;;;;6336904;28;20030;-85
2023/06/03 05:48:30;;;;;;;8.10;3.57;;;;;;;;;;6340629;28;20020;-87
2023/06/03 05:51:31;;;;;;;9.50;3.23;;;;;;;;;;6342444;28;20417;-85
2023/06/03 05:54:32;;;;;;;9.55;3.78;;;;;;;;;;6344566;28;20026;-85
2023/06/03 05:57:33;;;;;;;6.15;2.72;;;;;;;;;;6345923;28;20016;-85
2023/06/03 06:00:33;;;;;;;7.13;2.90;;;;;;;;;;6347105;28;20100;-84
2023/06/03 06:03:34;;;;;;;6.53;2.93;;;;;;;;;;6346514;28;20016;-84
2023/06/03 06:06:35;;;;;;;5.05;2.92;;;;;;;;;;6334623;28;20468;-84
2023/06/03 06:09:35;;;;;;;6.13;3.23;;;;;;;;;;6341654;28;20015;-84
2023/06/03 06:12:35;;;;;;;9.03;3.20;;;;;;;;;;6341890;28;20041;-85
2023/06/03 06:15:35;;;;;;;7.37;3.20;;;;;;;;;;6344667;28;20015;-85
2023/06/03 06:18:40;;;;;;;6.68;2.78;;;;;;;;;;6342695;27;20588;-84
2023/06/03 06:21:40;;;;;;;4.97;2.90;;;;;;;;;;6345258;28;20024;-84
2023/06/03 06:24:41;;;;;;;13.17;3.47;;;;;;;;;;6345480;28;20068;-84
2023/06/03 06:27:41;;;;;;;8.63;3.70;;;;;;;;;;6341437;28;20062;-85
2023/06/03 06:30:43;;;;;;;8.17;3.10;;;;;;;;;;6345250;28;20502;-85
2023/06/03 06:33:49;;;;;;;8.50;3.50;;;;;;;;;;6344798;28;20020;-85
2023/06/03 06:36:49;;;;;;;8.25;2.95;;;;;;;;;;6345167;27;20282;-85
2023/06/03 06:39:50;;;;;;;10.57;3.30;;;;;;;;;;6345675;28;20030;-85
2023/06/03 06:42:50;;;;;;;6.50;2.67;;;;;;;;;;6345260;28;20027;-85
2023/06/03 06:45:50;;;;;;;8.10;3.77;;;;;;;;;;6343230;28;20785;-84
2023/06/03 06:48:50;;;;;;;4.20;2.50;;;;;;;;;;6347361;28;20110;-86
2023/06/03 06:51:53;;;;;;;5.03;2.97;;;;;;;;;;6341319;28;20035;-85
2023/06/03 06:54:54;;;;;;;7.78;2.75;;;;;;;;;;6347128;28;20043;-85
2023/06/03 06:57:54;;;;;;;10.55;3.72;;;;;;;;;;6342889;28;20024;-85
2023/06/03 07:00:55;;;;;;;10.00;3.33;;;;;;;;;;6341771;28;20043;-86
2023/06/03 07:03:55;;;;;;;7.03;2.88;;;;;;;;;;6344671;28;20102;-84
2023/06/03 07:06:55;;;;;;;7.43;3.20;;;;;;;;;;6336480;28;20008;-84
2023/06/03 07:09:56;;;;;;;6.03;2.67;;;;;;;;;;6342514;28;20011;-86
2023/06/03 07:12:57;;;;;;;7.80;3.03;;;;;;;;;;6339967;28;20023;-86
2023/06/03 07:15:58;;;;;;;6.72;2.97;;;;;;;;;;6340436;28;20012;-84
2023/06/03 07:18:59;;;;;;;8.52;2.33;;;;;;;;;;6338544;28;20427;-84
2023/06/03 07:22:01;;;;;;;;;;;;;;;;;;6347004;28;20016;-83
2023/06/03 07:25:03;;;;;;;5.47;3.25;;;;;;;;;;6344716;28;19973;-85
2023/06/03 07:28:08;;;;;;;6.97;2.58;;;;;;;;;;6345395;28;20039;-85
2023/06/03 07:31:09;;;;;;;9.38;3.00;;;;;;;;;;6341082;28;20378;-87
2023/06/03 07:34:10;;;;;;;7.65;2.67;;;;;;;;;;6341168;28;20043;-86
2023/06/03 07:37:11;;;;;;;8.30;3.05;;;;;;;;;;6343161;28;20043;-84
2023/06/03 07:40:18;;;;;;;5.50;2.10;;;;;;;;;;6336260;28;20024;-85
2023/06/03 07:43:20;;;;;;;5.15;1.80;;;;;;;;;;6356889;27;20027;-88
2023/06/03 07:46:25;;;;;;;4.53;2.00;;;;;;;;;;6326893;28;20015;-85
2023/06/03 07:49:25;;;;;;;4.80;1.95;;;;;;;;;;6335388;28;20130;-87
2023/06/03 07:52:25;;;;;;;5.23;2.30;;;;;;;;;;6331163;28;20030;-86
2023/06/03 07:55:25;;;;;;;;;;;;;;;;;;6338868;28;20091;-87
2023/06/03 07:58:26;;;;;;;6.93;2.33;;;;;;;;;;6345144;28;19908;-87
2023/06/03 08:01:26;;;;;;;;;;;;;;;;;;6343449;28;20390;-86
2023/06/03 08:04:32;;;;;;;6.55;2.20;;;;;;;;;;6345559;28;19914;-86
2023/06/03 08:07:32;;;;;;;5.25;2.10;;;;;;;;;;6338691;28;20019;-88
2023/06/03 08:10:35;;;;;;;3.50;2.17;;;;;;;;;;6349182;28;20034;-87
2023/06/03 08:13:35;;;;;;;3.72;1.83;;;;;;;;;;6342070;28;20074;-86
2023/06/03 08:16:35;;;;;;;3.37;1.50;;;;;;;;;;6345289;28;20047;-87
2023/06/03 08:19:36;;;;;;;6.53;1.83;;;;;;;;;;6334597;28;20015;-88
2023/06/03 08:22:43;;;;;;;4.25;1.65;;;;;;;;;;6335403;27;20401;-81
2023/06/03 08:25:43;;;;;;;10.77;2.40;;;;;;;;;;6339857;28;20618;-81
2023/06/03 08:28:44;;;;;;;5.73;1.33;;;;;;;;;;6337636;28;20020;-80
2023/06/03 08:31:44;;;;;;;;;;;;;;;;;;6340484;28;20070;-81
2023/06/03 08:34:45;;;;;;;4.13;1.55;;;;;;;;;;6341818;28;19911;-81
2023/06/03 08:37:45;;;;;;;3.63;1.50;;;;;;;;;;6339976;28;20023;-81
2023/06/03 08:40:46;;;;;;;7.87;1.77;;;;;;;;;;6334734;28;20564;-81
2023/06/03 08:43:53;;;;;;;6.03;2.17;;;;;;;;;;6335368;28;20031;-81
2023/06/03 08:47:04;;;;;;;5.28;2.10;;;;;;;;;;6335974;28;20011;-81
2023/06/03 08:50:08;;;;;;;5.60;2.20;;;;;;;;;;6333326;28;20081;-81
2023/06/03 08:53:09;;;;;;;2.25;1.40;;;;;;;;;;6349240;27;20031;-81
2023/06/03 08:56:11;;;;;;;8.17;2.27;;;;;;;;;;6343061;28;20034;-81
2023/06/03 08:59:15;;;;;;;3.30;1.83;;;;;;;;;;6336027;28;20023;-81
2023/06/03 09:02:15;;;;;;;6.03;1.90;;;;;;;;;;6335695;28;20026;-81
2023/06/03 09:05:16;;;;;;;2.80;1.70;;;;;;;;;;6341144;28;20016;-81
2023/06/03 09:08:18;;;;;;;4.13;1.50;;;;;;;;;;6342555;28;20099;-81
2023/06/03 09:11:19;;;;;;;7.32;1.95;;;;;;;;;;6331071;28;20016;-81
2023/06/03 09:14:20;;;;;;;5.40;1.83;;;;;;;;;;6342107;28;20110;-81
2023/06/03 09:17:20;;;;;;;4.43;2.20;;;;;;;;;;6342848;28;20265;-81
2023/06/03 09:20:20;;;;;;;4.43;1.73;;;;;;;;;;6340812;28;20016;-81
2023/06/03 09:23:21;;;;;;;3.47;2.13;;;;;;;;;;6342913;28;20024;-81
2023/06/03 09:26:21;;;;;;;6.17;1.87;;;;;;;;;;6347442;28;20027;-81
2023/06/03 09:29:22;;;;;;;4.03;1.60;;;;;;;;;;6342869;28;20787;-80
2023/06/03 09:32:23;;;;;;;8.35;1.90;;;;;;;;;;6344793;28;20076;-87
2023/06/03 09:35:23;;;;;;;4.93;2.23;;;;;;;;;;6338336;28;20023;-85
2023/06/03 09:38:23;;;;;;;5.70;1.90;;;;;;;;;;6346882;28;20095;-86
2023/06/03 09:41:27;;;;;;;4.73;1.80;;;;;;;;;;6338183;28;20687;-87
2023/06/03 09:44:49;;;;;;;3.65;1.77;;;;;;;;;;6346413;28;20549;-86
2023/06/03 09:47:49;;;;;;;5.32;1.90;;;;;;;;;;6347520;28;20058;-84
2023/06/03 09:50:50;;;;;;;5.23;1.70;;;;;;;;;;6347925;28;20063;-87
2023/06/03 09:54:02;;;;;;;4.07;1.73;;;;;;;;;;6337301;28;20015;-87
2023/06/03 09:57:12;;;;;;;9.18;2.15;;;;;;;;;;6341596;28;20103;-87
2023/06/03 10:00:12;;;;;;;6.47;2.45;;;;;;;;;;6333047;28;20478;-86
2023/06/03 10:03:12;;;;;;;4.17;1.93;;;;;;;;;;6332302;28;20165;-86
2023/06/03 10:06:16;;;;;;;4.40;1.77;;;;;;;;;;6342221;28;20110;-85
2023/06/03 10:09:18;;;;;;;4.32;1.67;;;;;;;;;;6311848;28;20028;-86
2023/06/03 10:12:28;;;;;;;3.55;1.98;;;;;;;;;;6344910;28;20394;-85
2023/06/03 10:15:38;;;;;;;4.22;1.88;;;;;;;;;;6340100;28;20484;-86
2023/06/03 10:18:39;;;;;;;3.85;1.35;;;;;;;;;;6330592;27;20020;-85
2023/06/03 10:21:40;;;;;;;4.60;2.58;;;;;;;;;;6339986;28;20053;-86
2023/06/03 10:24:42;;;;;;;3.00;1.73;;;;;;;;;;6341659;27;20028;-85
2023/06/03 10:27:42;;;;;;;3.05;1.90;;;;;;;;;;6334976;28;20035;-86
2023/06/03 10:30:44;;;;;;;3.97;1.63;;;;;;;;;;6343534;28;21324;-86
2023/06/03 10:33:45;;;;;;;6.18;1.55;;;;;;;;;;6337547;28;20069;-86
2023/06/03 10:36:51;;;;;;;6.73;1.80;;;;;;;;;;6345884;28;20469;-86
2023/06/03 10:39:52;;;;;;;3.88;1.52;;;;;;;;;;6344618;28;20073;-85
2023/06/03 10:42:52;;;;;;;;;;;;;;;;;;6343189;28;20019;-81
2023/06/03 10:45:53;;;;;;;6.65;2.10;;;;;;;;;;6343352;28;19990;-80
2023/06/03 10:48:54;;;;;;;3.70;1.38;;;;;;;;;;6339317;28;20027;-81
2023/06/03 10:52:02;;;;;;;5.47;1.60;;;;;;;;;;6339451;28;20640;-80
2023/06/03 10:55:21;;;;;;;10.32;2.50;;;;;;;;;;6345220;28;20486;-80
2023/06/03 10:58:23;;;;;;;4.22;1.98;;;;;;;;;;6340660;28;20412;-80
2023/06/03 11:01:43;;;;;;;6.18;1.85;;;;;;;;;;6343987;28;20080;-80
2023/06/03 11:04:43;;;;;;;10.05;2.00;;;;;;;;;;6345212;28;20016;-81
2023/06/03 11:07:43;;;;;;;12.33;2.30;;;;;;;;;;6343202;28;20028;-81
2023/06/03 11:10:43;;;;;;;22.13;4.18;;;;;;;;;;6343791;28;20106;-80
2023/06/03 11:13:45;;;;;;;6.97;2.07;;;;;;;;;;6343827;28;20016;-80
2023/06/03 11:16:57;;;;;;;5.95;1.35;;;;;;;;;;6342261;28;20808;-81
2023/06/03 11:19:57;;;;;;;4.20;1.50;;;;;;;;;;6345441;28;20028;-80
2023/06/03 11:22:58;;;;;;;3.03;1.30;;;;;;;;;;6345368;28;20051;-81
2023/06/03 11:26:18;;;;;;;4.50;1.37;;;;;;;;;;6339602;28;20480;-81
2023/06/03 11:29:38;;;;;;;4.25;1.58;;;;;;;;;;6345259;28;20028;-81
2023/06/03 11:32:39;;;;;;;3.92;1.30;;;;;;;;;;6334171;28;20393;-81
2023/06/03 11:35:39;;;;;;;5.43;1.10;;;;;;;;;;6344261;28;20011;-80
2023/06/03 11:38:58;;;;;;;3.70;1.40;;;;;;;;;;6344251;28;20411;-81
2023/06/03 11:42:08;;;;;;;4.45;2.80;;;;;;;;;;6346959;28;20023;-81
2023/06/03 11:45:21;;;;;;;4.70;1.55;;;;;;;;;;6335116;28;20083;-81
2023/06/03 11:48:28;;;;;;;3.85;1.25;;;;;;;;;;6357082;28;20031;-81
2023/06/03 11:51:30;;;;;;;4.28;1.20;;;;;;;;;;6341334;28;20524;-88
2023/06/03 11:54:30;;;;;;;;;;;;;;;;;;6347533;28;20023;-87
2023/06/03 11:57:33;;;;;;;2.93;1.37;;;;;;;;;;6364509;28;19908;-87
2023/06/03 12:00:33;;;;;;;2.10;1.20;;;;;;;;;;6344212;28;20062;-81
2023/06/03 12:03:35;;;;;;;2.43;1.30;;;;;;;;;;6344872;28;20444;-81
2023/06/03 12:06:36;;;;;;;3.40;1.50;;;;;;;;;;6343467;28;20023;-81
2023/06/03 12:09:36;;;;;;;2.60;1.30;;;;;;;;;;6343806;28;20030;-80
2023/06/03 12:12:48;;;;;;;2.20;1.30;;;;;;;;;;6343526;28;20028;-80
2023/06/03 12:15:48;;;;;;;;;;;;;;;;;;6346359;28;20558;-82
2023/06/03 12:18:48;;;;;;;2.83;1.53;;;;;;;;;;6342121;28;19904;-79
2023/06/03 12:21:56;;;;;;;5.33;1.37;;;;;;;;;;6341886;28;20012;-79
2023/06/03 12:24:58;;;;;;;2.88;1.65;;;;;;;;;;6344432;28;20481;-79
2023/06/03 12:28:18;;;;;;;3.53;1.38;;;;;;;;;;6349319;28;20037;-80
2023/06/03 12:31:20;;;;;;;4.05;1.50;;;;;;;;;;6341821;28;20026;-80
2023/06/03 12:34:20;;;;;;;;;;;;;;;;;;6341792;28;20470;-79
2023/06/03 12:37:28;;;;;;;3.15;0.90;;;;;;;;;;6344081;28;19950;-80
2023/06/03 12:40:28;;;;;;;4.05;1.45;;;;;;;;;;6346596;28;20394;-80
2023/06/03 12:43:28;;;;;;;2.23;1.07;;;;;;;;;;6340132;28;20051;-80
2023/06/03 12:46:30;;;;;;;7.55;2.35;;;;;;;;;;6346802;28;20020;-80
2023/06/03 12:49:31;;;;;;;4.38;1.55;;;;;;;;;;6345287;28;20051;-80
2023/06/03 12:52:34;;;;;;;6.78;1.80;;;;;;;;;;6334005;28;20020;-80
2023/06/03 12:55:34;;;;;;;5.20;1.33;;;;;;;;;;6325565;28;20051;-80
2023/06/03 12:58:35;;;;;;;4.23;1.30;;;;;;;;;;6334912;28;20355;-80
2023/06/03 13:01:35;;;;;;;10.03;1.70;;;;;;;;;;6339264;28;20059;-80
2023/06/03 13:04:36;;;;;;;;;;;;;;;;;;6338193;28;20093;-80
2023/06/03 13:07:37;;;;;;;3.38;1.67;;;;;;;;;;6342477;28;19916;-81
2023/06/03 13:10:37;;;;;;;;;;;;;;;;;;6342570;28;20015;-82
2023/06/03 13:13:38;;;;;;;4.77;1.47;;;;;;;;;;6342922;28;19911;-81
2023/06/03 13:16:38;;;;;;;3.17;1.13;;;;;;;;;;6341825;28;20465;-81
2023/06/03 13:19:39;;;;;;;;;;;;;;;;;;6334531;28;20341;-81
2023/06/03 13:22:40;;;;;;;3.87;1.67;;;;;;;;;;6340362;28;19910;-81
2023/06/03 13:25:40;;;;;;;7.80;2.17;;;;;;;;;;6341251;28;20409;-81
2023/06/03 13:28:40;;;;;;;4.53;1.50;;;;;;;;;;6339766;28;20019;-82
2023/06/03 13:31:42;;;;;;;3.30;1.40;;;;;;;;;;6337255;28;20027;-81
2023/06/03 13:34:43;;;;;;;31.15;4.47;;;;;;;;;;6335670;28;20171;-82
2023/06/03 13:37:43;;;;;;;;;;;;;;;;;;6335408;28;20023;-81
2023/06/03 13:40:44;;;;;;;4.93;1.58;;;;;;;;;;6338104;28;19915;-81
2023/06/03 13:43:44;;;;;;;3.58;1.30;;;;;;;;;;6337604;28;20027;-80
2023/06/03 13:46:44;;;;;;;;;;;;;;;;;;6336784;28;20054;-79
2023/06/03 13:49:44;;;;;;;2.83;1.50;;;;;;;;;;6341012;28;19915;-79
2023/06/03 13:52:45;;;;;;;2.43;1.27;;;;;;;;;;6339406;28;20080;-80
2023/06/03 13:55:45;;;;;;;2.30;0.90;;;;;;;;;;6338880;28;20046;-79
2023/06/03 13:58:46;;;;;;;1.43;0.90;;;;;;;;;;6340642;28;20482;-79
2023/06/03 14:01:46;;;;;;;3.05;0.98;;;;;;;;;;6331911;28;20028;-79
2023/06/03 14:04:48;;;;;;;8.30;1.67;;;;;;;;;;6333173;28;20565;-80
2023/06/03 14:07:50;;;;;;;4.03;0.95;;;;;;;;;;6334588;28;20051;-80
2023/06/03 14:10:50;;;;;;;1.63;1.27;;;;;;;;;;6343141;28;20024;-84
2023/06/03 14:13:51;;;;;;;6.53;1.33;;;;;;;;;;6346753;27;20026;-85
2023/06/03 14:16:51;;;;;;;4.03;1.53;;;;;;;;;;6339436;28;20011;-87
2023/06/03 14:19:52;;;;;;;3.93;1.40;;;;;;;;;;6342216;28;20277;-87
2023/06/03 14:22:52;;;;;;;2.35;1.58;;;;;;;;;;6347012;28;20268;-80
2023/06/03 14:25:52;;;;;;;1.20;0.80;;;;;;;;;;6344584;28;20026;-79
2023/06/03 14:28:52;;;;;;;1.43;0.73;;;;;;;;;;6344182;28;20076;-80
2023/06/03 14:31:52;;;;;;;;;;;;;;;;;;6345599;28;20500;-80
2023/06/03 14:34:53;;;;;;;2.47;1.00;;;;;;;;;;6340671;28;19911;-80
2023/06/03 14:37:53;;;;;;;;;;;;;;;;;;6350779;28;20933;-81
2023/06/03 14:40:53;;;;;;;4.88;1.40;;;;;;;;;;6351866;28;20002;-81
2023/06/03 14:43:54;;;;;;;;;;;;;;;;;;6344980;28;20101;-81
2023/06/03 14:46:54;;;;;;;3.08;1.33;;;;;;;;;;6345480;28;20667;-80
2023/06/03 14:49:55;;;;;;;;;;;;;;;;;;6345388;28;20039;-81
2023/06/03 14:52:56;;;;;;;6.03;1.23;;;;;;;;;;6350640;28;19916;-81
2023/06/03 14:55:57;;;;;;;8.77;2.10;;;;;;;;;;6347049;28;20023;-81
2023/06/03 14:58:58;;;;;;;2.60;1.13;;;;;;;;;;6338763;28;20351;-81
2023/06/03 15:01:58;;;;;;;3.60;1.20;;;;;;;;;;6338555;28;20016;-80
2023/06/03 15:04:58;;;;;;;3.40;1.30;;;;;;;;;;6343899;28;20138;-81
2023/06/03 15:07:58;;;;;;;4.47;1.33;;;;;;;;;;6340811;28;20062;-81
2023/06/03 15:10:59;;;;;;;3.17;1.07;;;;;;;;;;6337304;28;20015;-81
2023/06/03 15:13:59;;;;;;;3.50;1.67;;;;;;;;;;6336241;28;20019;-81
2023/06/03 15:16:59;;;;;;;3.90;1.00;;;;;;;;;;6340572;28;20019;-81
2023/06/03 15:19:59;;;;;;;3.97;1.43;;;;;;;;;;6345186;28;20012;-81
2023/06/03 15:23:00;;;;;;;2.03;0.87;;;;;;;;;;6343529;28;20026;-87
2023/06/03 15:26:00;;;;;;;4.53;1.43;;;;;;;;;;6341137;28;20024;-86
2023/06/03 15:29:00;;;;;;;5.20;0.97;;;;;;;;;;6342209;28;20488;-86
2023/06/03 15:32:01;;;;;;;6.80;1.33;;;;;;;;;;6330165;28;20027;-81
2023/06/03 15:35:02;;;;;;;2.07;1.13;;;;;;;;;;6332177;28;20020;-81
2023/06/03 15:38:02;;;;;;;2.92;1.40;;;;;;;;;;6340763;28;20030;-81
2023/06/03 15:41:02;;;;;;;4.17;1.70;;;;;;;;;;6340712;28;20594;-81
2023/06/03 15:44:04;;;;;;;4.90;2.63;;;;;;;;;;6340419;28;20027;-80
2023/06/03 15:47:04;;;;;;;34.60;20.63;;;;;;;;;;6343422;28;20023;-80
2023/06/03 15:50:05;;;;;;;1.53;1.10;;;;;;;;;;6342480;28;20047;-81
2023/06/03 15:53:06;;;;;;;1.92;1.33;;;;;;;;;;6344108;28;20044;-81
2023/06/03 15:56:06;;;;;;;2.47;1.13;;;;;;;;;;6342467;28;20088;-81
2023/06/03 15:59:07;;;;;;;3.13;1.60;;;;;;;;;;6342965;28;20055;-80
2023/06/03 16:02:07;;;;;;;4.70;2.07;;;;;;;;;;6338677;28;20015;-80
2023/06/03 16:05:08;;;;;;;4.57;1.02;;;;;;;;;;6343632;28;20055;-80
2023/06/03 16:08:09;;;;;;;2.50;1.10;;;;;;;;;;6342124;28;20098;-80
2023/06/03 16:11:09;;;;;;;3.00;1.10;;;;;;;;;;6340117;28;20458;-80
2023/06/03 16:14:10;;;;;;;1.58;1.13;;;;;;;;;;6342307;28;20019;-80
2023/06/03 16:17:10;;;;;;;3.20;1.67;;;;;;;;;;6341982;28;20018;-80
2023/06/03 16:20:12;;;;;;;2.83;1.50;;;;;;;;;;6339379;28;20019;-80
2023/06/03 16:23:13;;;;;;;1.73;1.30;;;;;;;;;;6342068;28;20102;-81
2023/06/03 16:26:13;;;;;;;5.50;1.50;;;;;;;;;;6342190;28;20111;-81
2023/06/03 16:29:14;;;;;;;3.03;1.50;;;;;;;;;;6342002;28;20027;-81
2023/06/03 16:32:14;;;;;;;2.60;1.40;;;;;;;;;;6341675;28;20023;-87
2023/06/03 16:35:20;;;;;;;4.30;1.60;;;;;;;;;;6345163;28;20028;-85
2023/06/03 16:38:21;;;;;;;4.65;1.40;;;;;;;;;;6344117;28;20382;-87
2023/06/03 16:41:23;;;;;;;2.75;1.20;;;;;;;;;;6344599;28;20024;-81
2023/06/03 16:44:24;;;;;;;3.28;1.50;;;;;;;;;;6341573;28;20481;-79
2023/06/03 16:47:24;;;;;;;4.03;1.80;;;;;;;;;;6342960;28;20030;-79
2023/06/03 16:50:25;;;;;;;3.67;1.00;;;;;;;;;;6341677;28;20039;-81
2023/06/03 16:53:26;;;;;;;5.20;2.05;;;;;;;;;;6341478;28;20817;-81
2023/06/03 16:56:26;;;;;;;2.30;1.37;;;;;;;;;;6342824;28;20111;-81
2023/06/03 16:59:27;;;;;;;2.73;1.30;;;;;;;;;;6340495;28;20020;-79
2023/06/03 17:02:28;;;;;;;4.17;1.40;;;;;;;;;;6338307;28;20411;-79
2023/06/03 17:05:28;;;;;;;2.80;1.20;;;;;;;;;;6343045;28;20019;-79
2023/06/03 17:08:28;;;;;;;4.03;1.40;;;;;;;;;;6345209;28;20400;-81
2023/06/03 17:11:30;;;;;;;4.43;1.27;;;;;;;;;;6344355;28;20019;-79
2023/06/03 17:14:31;;;;;;;2.90;1.40;;;;;;;;;;6345628;28;20482;-81
2023/06/03 17:17:31;;;;;;;3.10;1.47;;;;;;;;;;6337944;28;20025;-81
2023/06/03 17:20:31;;;;;;;5.17;1.60;;;;;;;;;;6339571;28;20470;-79
2023/06/03 17:23:31;;;;;;;5.70;2.37;;;;;;;;;;6340194;28;20028;-79
2023/06/03 17:26:32;;;;;;;6.57;1.40;;;;;;;;;;6336577;28;20022;-79
2023/06/03 17:29:32;;;;;;;3.40;1.33;;;;;;;;;;6340579;28;20401;-79
2023/06/03 17:32:32;;;;;;;4.03;1.60;;;;;;;;;;6337661;28;20119;-79
2023/06/03 17:35:32;;;;;;;4.57;1.45;;;;;;;;;;6340330;28;20020;-79
2023/06/03 17:38:33;;;;;;;2.60;0.97;;;;;;;;;;6342186;28;20093;-80
2023/06/03 17:41:35;;;;;;;12.70;3.57;;;;;;;;;;6336333;28;20074;-80
2023/06/03 17:44:35;;;;;;;7.07;2.13;;;;;;;;;;6339525;28;20028;-80
2023/06/03 17:47:35;;;;;;;12.27;4.17;;;;;;;;;;6347193;28;20031;-80
2023/06/03 17:50:35;;;;;;;8.37;2.97;;;;;;;;;;6342183;28;20591;-85
2023/06/03 17:53:36;;;;;;;4.70;2.60;;;;;;;;;;6345802;28;20470;-85
2023/06/03 17:56:36;;;;;;;4.23;1.77;;;;;;;;;;6347043;28;20094;-85
2023/06/03 17:59:36;;;;;;;3.63;1.90;;;;;;;;;;6347012;28;20031;-86
2023/06/03 18:02:36;;;;;;;6.73;1.73;;;;;;;;;;6343069;28;20047;-85
2023/06/03 18:05:37;;;;;;;4.85;1.58;;;;;;;;;;6348211;28;20023;-85
2023/06/03 18:08:38;;;;;;;3.78;1.92;;;;;;;;;;6372035;28;20023;-85
2023/06/03 18:11:40;;;;;;;4.20;1.70;;;;;;;;;;6377012;28;20025;-86